createdAt,value
2018-07-23T00:01:29.117Z,19.14
2018-07-23T00:03:41.570Z,19.16
2018-07-23T00:05:53.940Z,19.20
2018-07-23T00:08:06.418Z,19.20
2018-07-23T00:10:18.825Z,19.20
2018-07-23T00:12:31.178Z,19.18
2018-07-23T00:14:43.657Z,19.17
2018-07-23T00:16:56.048Z,19.17
2018-07-23T00:19:08.394Z,19.19
2018-07-23T00:21:20.934Z,19.18
2018-07-23T00:23:33.281Z,19.21
2018-07-23T00:25:45.676Z,19.23
2018-07-23T00:27:58.189Z,19.21
2018-07-23T00:30:10.598Z,19.19
2018-07-23T00:32:22.969Z,19.19
2018-07-23T00:34:35.359Z,19.19
2018-07-23T00:36:47.705Z,19.16
2018-07-23T00:39:00.024Z,19.08
2018-07-23T00:41:12.451Z,19.03
2018-07-23T00:43:24.814Z,18.98
2018-07-23T00:45:37.212Z,18.94
2018-07-23T00:47:49.534Z,18.95
2018-07-23T00:50:01.994Z,18.98
2018-07-23T00:52:14.368Z,19.00
2018-07-23T00:54:26.732Z,19.02
2018-07-23T00:56:39.140Z,19.03
2018-07-23T00:58:51.634Z,19.04
2018-07-23T01:01:03.940Z,19.03
2018-07-23T01:03:16.357Z,18.98
2018-07-23T01:05:28.769Z,18.95
2018-07-23T01:07:41.200Z,18.93
2018-07-23T01:09:53.913Z,18.89
2018-07-23T01:12:06.251Z,18.89
2018-07-23T01:14:18.677Z,18.90
2018-07-23T01:16:31.099Z,18.89
2018-07-23T01:18:43.528Z,18.86
2018-07-23T01:20:56.092Z,18.87
2018-07-23T01:23:09.323Z,18.86
2018-07-23T01:25:21.657Z,18.85
2018-07-23T01:27:33.991Z,18.85
2018-07-23T01:29:46.381Z,18.85
2018-07-23T01:31:58.768Z,18.88
2018-07-23T01:34:11.189Z,18.91
2018-07-23T01:36:23.528Z,18.92
2018-07-23T01:38:35.915Z,18.93
2018-07-23T01:40:48.366Z,18.90
2018-07-23T01:43:00.895Z,18.90
2018-07-23T01:45:13.371Z,18.89
2018-07-23T01:47:25.861Z,18.87
2018-07-23T01:49:38.251Z,18.84
2018-07-23T01:51:50.665Z,18.82
2018-07-23T01:54:03.074Z,18.79
2018-07-23T01:56:15.421Z,18.78
2018-07-23T01:58:28.046Z,18.79
2018-07-23T02:00:40.410Z,18.77
2018-07-23T02:02:52.881Z,18.75
2018-07-23T02:05:05.368Z,18.72
2018-07-23T02:07:17.872Z,18.68
2018-07-23T02:09:30.303Z,18.67
2018-07-23T02:11:42.855Z,18.68
2018-07-23T02:13:55.193Z,18.69
2018-07-23T02:16:07.566Z,18.71
2018-07-23T02:18:19.913Z,18.74
2018-07-23T02:20:32.471Z,18.76
2018-07-23T02:22:44.834Z,18.78
2018-07-23T02:24:57.210Z,18.78
2018-07-23T02:27:09.615Z,18.80
2018-07-23T02:29:21.965Z,18.80
2018-07-23T02:31:34.309Z,18.78
2018-07-23T02:33:46.707Z,18.79
2018-07-23T02:35:59.170Z,18.80
2018-07-23T02:38:11.614Z,18.80
2018-07-23T02:40:24.065Z,18.86
2018-07-23T02:42:36.532Z,18.85
2018-07-23T02:44:48.950Z,18.83
2018-07-23T02:47:01.475Z,18.84
2018-07-23T02:49:13.910Z,18.81
2018-07-23T02:51:26.224Z,18.76
2018-07-23T02:53:38.650Z,18.74
2018-07-23T02:55:51.017Z,18.69
2018-07-23T02:58:03.381Z,18.64
2018-07-23T03:00:15.832Z,18.61
2018-07-23T03:02:28.179Z,18.57
2018-07-23T03:04:40.562Z,18.52
2018-07-23T03:06:52.931Z,18.50
2018-07-23T03:09:06.516Z,18.48
2018-07-23T03:11:18.921Z,18.50
2018-07-23T03:13:31.333Z,18.51
2018-07-23T03:15:43.757Z,18.49
2018-07-23T03:17:56.202Z,18.45
2018-07-23T03:20:08.605Z,18.45
2018-07-23T03:22:20.945Z,18.41
2018-07-23T03:24:33.302Z,18.40
2018-07-23T03:26:45.805Z,18.42
2018-07-23T03:28:58.238Z,18.45
2018-07-23T03:31:10.600Z,18.44
2018-07-23T03:33:22.986Z,18.45
2018-07-23T03:35:35.337Z,18.48
2018-07-23T03:37:47.813Z,18.51
2018-07-23T03:40:00.213Z,18.52
2018-07-23T03:42:12.554Z,18.51
2018-07-23T03:44:24.926Z,18.50
2018-07-23T03:46:37.390Z,18.52
2018-07-23T03:48:49.878Z,18.51
2018-07-23T03:51:02.214Z,18.53
2018-07-23T03:53:14.619Z,18.55
2018-07-23T03:55:26.961Z,18.58
2018-07-23T03:57:39.341Z,18.61
2018-07-23T03:59:51.763Z,18.64
2018-07-23T04:02:04.278Z,18.65
2018-07-23T04:04:17.214Z,18.66
2018-07-23T04:06:29.670Z,18.70
2018-07-23T04:08:42.111Z,18.72
2018-07-23T04:10:54.636Z,18.75
2018-07-23T04:13:06.988Z,18.76
2018-07-23T04:15:19.366Z,18.78
2018-07-23T04:17:31.863Z,18.78
2018-07-23T04:19:44.317Z,18.81
2018-07-23T04:21:56.691Z,18.82
2018-07-23T04:24:09.200Z,18.85
2018-07-23T04:26:21.541Z,18.86
2018-07-23T04:28:33.952Z,18.88
2018-07-23T04:30:46.462Z,18.90
2018-07-23T04:32:58.863Z,18.90
2018-07-23T04:35:11.409Z,18.95
2018-07-23T04:37:23.781Z,19.05
2018-07-23T04:39:36.186Z,19.04
2018-07-23T04:41:48.701Z,19.04
2018-07-23T04:44:01.070Z,19.00
2018-07-23T04:46:13.530Z,18.99
2018-07-23T04:48:25.954Z,19.13
2018-07-23T04:50:38.455Z,19.30
2018-07-23T04:52:50.711Z,19.41
2018-07-23T04:55:03.170Z,19.43
2018-07-23T04:57:15.511Z,19.41
2018-07-23T04:59:27.865Z,19.40
2018-07-23T05:01:40.345Z,19.33
2018-07-23T05:03:52.713Z,19.28
2018-07-23T05:06:05.324Z,19.28
2018-07-23T05:08:18.047Z,19.37
2018-07-23T05:10:30.445Z,19.42
2018-07-23T05:12:42.845Z,19.43
2018-07-23T05:14:55.213Z,19.43
2018-07-23T05:17:07.640Z,19.42
2018-07-23T05:19:20.013Z,19.40
2018-07-23T05:21:32.440Z,19.36
2018-07-23T05:23:45.070Z,19.36
2018-07-23T05:25:57.457Z,19.43
2018-07-23T05:28:09.854Z,19.51
2018-07-23T05:30:22.466Z,19.59
2018-07-23T05:32:34.886Z,19.65
2018-07-23T05:34:47.277Z,19.67
2018-07-23T05:36:59.928Z,19.72
2018-07-23T05:39:12.428Z,19.80
2018-07-23T05:41:24.873Z,19.94
2018-07-23T05:43:37.453Z,20.01
2018-07-23T05:45:49.853Z,20.02
2018-07-23T05:48:02.214Z,20.22
2018-07-23T05:50:14.590Z,20.43
2018-07-23T05:52:26.942Z,20.50
2018-07-23T05:54:39.297Z,20.43
2018-07-23T05:56:51.789Z,20.32
2018-07-23T05:59:04.340Z,20.18
2018-07-23T06:01:16.914Z,20.05
2018-07-23T06:03:29.330Z,19.97
2018-07-23T06:05:41.827Z,19.90
2018-07-23T06:07:54.254Z,19.84
2018-07-23T06:10:06.685Z,19.72
2018-07-23T06:12:19.063Z,19.72
2018-07-23T06:14:31.440Z,19.72
2018-07-23T06:16:43.776Z,19.71
2018-07-23T06:18:56.186Z,19.73
2018-07-23T06:21:08.555Z,19.76
2018-07-23T06:23:20.918Z,19.77
2018-07-23T06:25:33.290Z,19.79
2018-07-23T06:27:45.660Z,19.78
2018-07-23T06:29:58.144Z,19.77
2018-07-23T06:32:10.543Z,19.72
2018-07-23T06:34:23.181Z,19.73
2018-07-23T06:36:35.575Z,19.76
2018-07-23T06:38:48.147Z,19.81
2018-07-23T06:41:00.526Z,19.87
2018-07-23T06:43:13.224Z,19.90
2018-07-23T06:45:26.414Z,19.94
2018-07-23T06:47:38.933Z,20.03
2018-07-23T06:49:51.295Z,20.08
2018-07-23T06:52:03.695Z,20.19
2018-07-23T06:54:16.118Z,20.26
2018-07-23T06:56:28.609Z,20.32
2018-07-23T06:58:40.997Z,20.38
2018-07-23T07:00:53.436Z,20.40
2018-07-23T07:03:06.469Z,20.45
2018-07-23T07:05:18.872Z,20.46
2018-07-23T07:07:31.287Z,20.53
2018-07-23T07:09:43.710Z,20.63
2018-07-23T07:11:56.081Z,20.74
2018-07-23T07:14:08.788Z,20.85
2018-07-23T07:16:21.431Z,20.92
2018-07-23T07:18:33.848Z,21.01
2018-07-23T07:20:46.242Z,21.09
2018-07-23T07:22:58.662Z,21.11
2018-07-23T07:25:11.046Z,21.12
2018-07-23T07:27:23.563Z,21.09
2018-07-23T07:29:35.967Z,21.09
2018-07-23T07:31:48.386Z,21.12
2018-07-23T07:34:01.354Z,21.15
2018-07-23T07:36:13.783Z,21.20
2018-07-23T07:38:26.239Z,21.23
2018-07-23T07:40:39.083Z,21.27
2018-07-23T07:42:52.247Z,21.32
2018-07-23T07:45:05.400Z,21.37
2018-07-23T07:47:17.802Z,21.37
2018-07-23T07:49:30.243Z,21.38
2018-07-23T07:51:42.610Z,21.48
2018-07-23T07:53:55.064Z,21.58
2018-07-23T07:56:08.023Z,21.64
2018-07-23T07:58:20.571Z,21.71
2018-07-23T08:00:32.927Z,21.83
2018-07-23T08:02:46.347Z,22.10
2018-07-23T08:04:59.638Z,22.42
2018-07-23T08:07:12.153Z,22.75
2018-07-23T08:09:24.506Z,23.02
2018-07-23T08:11:37.408Z,23.08
2018-07-23T08:13:49.966Z,23.11
2018-07-23T08:16:02.373Z,23.21
2018-07-23T08:18:14.765Z,23.47
2018-07-23T08:20:27.500Z,23.69
2018-07-23T08:22:39.829Z,23.97
2018-07-23T08:24:52.237Z,24.28
2018-07-23T08:27:04.966Z,24.43
2018-07-23T08:29:17.377Z,24.59
2018-07-23T08:31:29.834Z,24.58
2018-07-23T08:33:42.282Z,24.52
2018-07-23T08:35:55.753Z,24.48
2018-07-23T08:38:08.154Z,24.51
2018-07-23T08:40:20.643Z,24.61
2018-07-23T08:42:33.993Z,24.78
2018-07-23T08:44:46.506Z,24.97
2018-07-23T08:46:58.959Z,25.20
2018-07-23T08:49:11.316Z,25.46
2018-07-23T08:51:23.778Z,25.71
2018-07-23T08:53:36.101Z,25.94
2018-07-23T08:55:48.468Z,26.09
2018-07-23T08:58:01.559Z,26.13
2018-07-23T09:00:13.937Z,26.23
2018-07-23T09:02:26.424Z,26.32
2018-07-23T09:04:38.795Z,26.24
2018-07-23T09:06:51.335Z,26.25
2018-07-23T09:09:05.363Z,26.30
2018-07-23T09:11:17.898Z,26.39
2018-07-23T09:13:30.290Z,26.49
2018-07-23T09:15:42.634Z,26.63
2018-07-23T09:17:55.124Z,26.64
2018-07-23T09:20:07.540Z,26.55
2018-07-23T09:22:19.946Z,26.59
2018-07-23T09:24:32.394Z,26.54
2018-07-23T09:26:44.854Z,26.57
2018-07-23T09:28:57.232Z,26.70
2018-07-23T09:31:09.800Z,26.80
2018-07-23T09:33:23.464Z,26.86
2018-07-23T09:35:36.012Z,26.84
2018-07-23T09:37:48.430Z,26.99
2018-07-23T09:40:00.849Z,27.02
2018-07-23T09:42:13.210Z,27.20
2018-07-23T09:44:25.689Z,27.35
2018-07-23T09:46:38.134Z,27.56
2018-07-23T09:48:51.294Z,27.52
2018-07-23T09:51:03.772Z,27.42
2018-07-23T09:53:16.125Z,27.47
2018-07-23T09:55:29.183Z,27.63
2018-07-23T09:57:41.514Z,27.76
2018-07-23T09:59:53.982Z,27.79
2018-07-23T10:02:06.437Z,27.91
2018-07-23T10:04:18.889Z,27.96
2018-07-23T10:06:31.229Z,27.99
2018-07-23T10:08:43.754Z,28.02
2018-07-23T10:10:56.293Z,28.12
2018-07-23T10:13:08.611Z,28.23
2018-07-23T10:15:20.995Z,28.28
2018-07-23T10:17:33.340Z,28.33
2018-07-23T10:19:45.882Z,28.38
2018-07-23T10:21:58.373Z,28.46
2018-07-23T10:24:10.815Z,28.57
2018-07-23T10:26:23.177Z,28.71
2018-07-23T10:28:35.544Z,28.71
2018-07-23T10:30:47.929Z,28.58
2018-07-23T10:33:00.390Z,28.52
2018-07-23T10:35:12.805Z,28.50
2018-07-23T10:37:25.317Z,28.49
2018-07-23T10:39:37.805Z,28.47
2018-07-23T10:41:50.180Z,28.55
2018-07-23T10:44:02.629Z,28.54
2018-07-23T10:46:15.080Z,28.51
2018-07-23T10:48:27.498Z,28.52
2018-07-23T10:50:40.024Z,28.57
2018-07-23T10:52:52.441Z,28.64
2018-07-23T10:55:04.851Z,28.78
2018-07-23T10:57:17.328Z,28.90
2018-07-23T10:59:29.711Z,28.92
2018-07-23T11:01:42.219Z,28.94
2018-07-23T11:03:54.735Z,29.03
2018-07-23T11:06:07.137Z,29.18
2018-07-23T11:08:19.481Z,29.21
2018-07-23T11:10:31.937Z,29.17
2018-07-23T11:12:44.378Z,29.14
2018-07-23T11:14:56.869Z,29.14
2018-07-23T11:17:09.249Z,29.08
2018-07-23T11:19:21.812Z,29.09
2018-07-23T11:21:34.142Z,29.04
2018-07-23T11:23:46.486Z,29.06
2018-07-23T11:25:58.952Z,29.06
2018-07-23T11:28:11.321Z,29.00
2018-07-23T11:30:23.718Z,29.02
2018-07-23T11:32:36.283Z,28.87
2018-07-23T11:34:48.730Z,28.79
2018-07-23T11:37:01.106Z,28.78
2018-07-23T11:39:13.527Z,28.67
2018-07-23T11:41:25.920Z,28.70
2018-07-23T11:43:38.397Z,28.74
2018-07-23T11:45:50.836Z,28.64
2018-07-23T11:48:03.212Z,28.71
2018-07-23T11:50:15.603Z,28.72
2018-07-23T11:52:27.965Z,28.79
2018-07-23T11:54:40.475Z,28.73
2018-07-23T11:56:52.862Z,28.68
2018-07-23T11:59:05.330Z,28.68
2018-07-23T12:01:17.760Z,28.73
2018-07-23T12:03:30.197Z,28.73
2018-07-23T12:05:42.618Z,28.67
2018-07-23T12:07:55.099Z,28.64
2018-07-23T12:10:07.474Z,28.61
2018-07-23T12:12:19.879Z,28.63
2018-07-23T12:14:32.469Z,28.64
2018-07-23T12:16:44.894Z,28.75
2018-07-23T12:18:57.322Z,28.85
2018-07-23T12:21:09.744Z,28.86
2018-07-23T12:23:22.116Z,28.85
2018-07-23T12:25:34.579Z,28.84
2018-07-23T12:27:46.933Z,28.75
2018-07-23T12:29:59.311Z,28.73
2018-07-23T12:32:11.781Z,28.73
2018-07-23T12:34:24.293Z,28.78
2018-07-23T12:36:36.711Z,28.81
2018-07-23T12:38:49.164Z,28.81
2018-07-23T12:41:01.475Z,28.84
2018-07-23T12:43:13.974Z,28.86
2018-07-23T12:45:26.486Z,28.64
2018-07-23T12:47:38.948Z,28.41
2018-07-23T12:49:51.326Z,28.31
2018-07-23T12:52:03.792Z,28.34
2018-07-23T12:54:16.254Z,28.41
2018-07-23T12:56:28.671Z,28.55
2018-07-23T12:58:41.210Z,28.56
2018-07-23T13:00:53.720Z,28.57
2018-07-23T13:03:06.146Z,28.63
2018-07-23T13:05:18.549Z,28.53
2018-07-23T13:07:31.081Z,28.49
2018-07-23T13:09:43.637Z,28.49
2018-07-23T13:11:56.072Z,28.51
2018-07-23T13:14:08.518Z,28.49
2018-07-23T13:16:21.062Z,28.46
2018-07-23T13:18:33.510Z,28.48
2018-07-23T13:20:45.986Z,28.56
2018-07-23T13:22:58.355Z,28.57
2018-07-23T13:25:10.832Z,28.62
2018-07-23T13:27:23.301Z,28.72
2018-07-23T13:29:35.674Z,28.76
2018-07-23T13:31:48.015Z,28.84
2018-07-23T13:34:00.553Z,28.83
2018-07-23T13:36:12.902Z,28.84
2018-07-23T13:38:25.463Z,28.91
2018-07-23T13:40:37.794Z,28.94
2018-07-23T13:42:50.248Z,28.90
2018-07-23T13:45:02.877Z,28.86
2018-07-23T13:47:15.296Z,28.86
2018-07-23T13:49:27.667Z,28.93
2018-07-23T13:51:40.133Z,29.02
2018-07-23T13:53:52.480Z,29.03
2018-07-23T13:56:05.004Z,28.99
2018-07-23T13:58:17.425Z,28.83
2018-07-23T14:00:29.845Z,28.79
2018-07-23T14:02:42.243Z,28.75
2018-07-23T14:04:54.706Z,28.73
2018-07-23T14:07:07.289Z,28.73
2018-07-23T14:09:19.721Z,28.86
2018-07-23T14:11:32.167Z,28.98
2018-07-23T14:13:44.510Z,29.03
2018-07-23T14:15:56.986Z,29.05
2018-07-23T14:18:09.398Z,29.01
2018-07-23T14:20:21.854Z,29.10
2018-07-23T14:22:34.285Z,29.12
2018-07-23T14:24:46.662Z,29.16
2018-07-23T14:26:59.115Z,29.10
2018-07-23T14:29:11.489Z,29.12
2018-07-23T14:31:23.873Z,29.07
2018-07-23T14:33:36.409Z,29.05
2018-07-23T14:35:48.829Z,28.96
2018-07-23T14:38:01.301Z,28.88
2018-07-23T14:40:13.730Z,28.84
2018-07-23T14:42:26.118Z,28.70
2018-07-23T14:44:38.506Z,28.66
2018-07-23T14:46:50.931Z,28.64
2018-07-23T14:49:03.412Z,28.57
2018-07-23T14:51:15.909Z,28.55
2018-07-23T14:53:28.457Z,28.53
2018-07-23T14:55:40.842Z,28.45
2018-07-23T14:57:53.337Z,28.44
2018-07-23T15:00:05.864Z,28.46
2018-07-23T15:02:18.274Z,28.40
2018-07-23T15:04:30.709Z,28.42
2018-07-23T15:06:43.194Z,28.45
2018-07-23T15:08:55.557Z,28.37
2018-07-23T15:11:08.020Z,28.39
2018-07-23T15:13:20.572Z,28.38
2018-07-23T15:15:33.033Z,28.35
2018-07-23T15:17:45.951Z,28.31
2018-07-23T15:19:58.474Z,28.35
2018-07-23T15:22:10.872Z,28.32
2018-07-23T15:24:23.700Z,28.29
2018-07-23T15:26:36.375Z,28.33
2018-07-23T15:28:48.794Z,28.35
2018-07-23T15:31:01.408Z,28.29
2018-07-23T15:33:13.871Z,28.28
2018-07-23T15:35:26.294Z,28.28
2018-07-23T15:37:38.685Z,28.28
2018-07-23T15:39:51.332Z,28.23
2018-07-23T15:42:03.889Z,28.21
2018-07-23T15:44:16.316Z,28.18
2018-07-23T15:46:28.642Z,28.20
2018-07-23T15:48:41.062Z,28.11
2018-07-23T15:50:53.670Z,28.07
2018-07-23T15:53:06.079Z,28.05
2018-07-23T15:55:18.466Z,28.05
2018-07-23T15:57:30.856Z,28.02
2018-07-23T15:59:43.489Z,28.00
2018-07-23T16:01:55.903Z,27.99
2018-07-23T16:04:08.259Z,27.95
2018-07-23T16:06:20.664Z,27.90
2018-07-23T16:08:33.032Z,27.85
2018-07-23T16:10:45.631Z,27.86
2018-07-23T16:12:58.009Z,27.77
2018-07-23T16:15:10.411Z,27.76
2018-07-23T16:17:22.779Z,27.77
2018-07-23T16:19:35.225Z,27.73
2018-07-23T16:21:47.671Z,27.72
2018-07-23T16:24:00.138Z,27.70
2018-07-23T16:26:12.567Z,27.76
2018-07-23T16:28:25.438Z,27.77
2018-07-23T16:30:37.838Z,27.78
2018-07-23T16:32:50.143Z,27.74
2018-07-23T16:35:02.758Z,27.76
2018-07-23T16:37:15.130Z,27.73
2018-07-23T16:39:27.557Z,27.70
2018-07-23T16:41:40.000Z,27.69
2018-07-23T16:43:52.578Z,27.69
2018-07-23T16:46:04.999Z,27.69
2018-07-23T16:48:17.405Z,27.69
2018-07-23T16:50:29.817Z,27.71
2018-07-23T16:52:42.240Z,27.69
2018-07-23T16:54:54.647Z,27.59
2018-07-23T16:57:07.134Z,27.52
2018-07-23T16:59:19.818Z,27.48
2018-07-23T17:01:32.334Z,27.43
2018-07-23T17:03:44.763Z,27.40
2018-07-23T17:05:57.173Z,27.32
2018-07-23T17:08:09.710Z,27.21
2018-07-23T17:10:22.027Z,27.23
2018-07-23T17:12:34.387Z,27.21
2018-07-23T17:14:46.898Z,27.23
2018-07-23T17:16:59.240Z,27.23
2018-07-23T17:19:11.609Z,27.22
2018-07-23T17:21:23.961Z,27.21
2018-07-23T17:23:36.480Z,27.19
2018-07-23T17:25:49.192Z,27.12
2018-07-23T17:28:01.607Z,27.14
2018-07-23T17:30:14.122Z,27.15
2018-07-23T17:32:26.745Z,27.15
2018-07-23T17:34:39.114Z,27.11
2018-07-23T17:36:51.546Z,27.03
2018-07-23T17:39:07.546Z,27.01
2018-07-23T17:41:20.046Z,27.01
2018-07-23T17:43:32.527Z,27.00
2018-07-23T17:45:44.906Z,26.95
2018-07-23T17:47:57.498Z,26.94
2018-07-23T17:50:09.898Z,26.87
2018-07-23T17:52:22.318Z,26.80
2018-07-23T17:54:34.822Z,26.74
2018-07-23T17:56:47.292Z,26.64
2018-07-23T17:58:59.712Z,26.62
2018-07-23T18:01:12.194Z,26.60
2018-07-23T18:03:24.566Z,26.58
2018-07-23T18:05:37.006Z,26.57
2018-07-23T18:07:49.372Z,26.56
2018-07-23T18:10:01.937Z,26.55
2018-07-23T18:12:14.371Z,26.49
2018-07-23T18:14:26.798Z,26.45
2018-07-23T18:16:39.349Z,26.46
2018-07-23T18:18:51.723Z,26.43
2018-07-23T18:21:04.218Z,26.37
2018-07-23T18:23:16.758Z,26.32
2018-07-23T18:25:29.383Z,26.27
2018-07-23T18:27:41.803Z,26.24
2018-07-23T18:29:54.119Z,26.21
2018-07-23T18:32:06.657Z,26.17
2018-07-23T18:34:19.069Z,26.15
2018-07-23T18:36:31.464Z,26.13
2018-07-23T18:38:44.183Z,26.10
2018-07-23T18:40:56.627Z,26.06
2018-07-23T18:43:09.018Z,25.99
2018-07-23T18:45:21.441Z,25.89
2018-07-23T18:47:33.954Z,25.71
2018-07-23T18:49:55.628Z,25.49
2018-07-23T18:52:08.178Z,25.24
2018-07-23T18:54:21.670Z,25.04
2018-07-23T18:56:44.240Z,24.97
2018-07-23T18:58:56.643Z,24.89
2018-07-23T19:01:09.170Z,24.76
2018-07-23T19:03:21.635Z,24.68
2018-07-23T19:05:34.113Z,24.63
2018-07-23T19:07:46.480Z,24.51
2018-07-23T19:09:58.884Z,24.41
2018-07-23T19:12:11.812Z,24.30
2018-07-23T19:14:26.257Z,24.22
2018-07-23T19:16:39.850Z,24.17
2018-07-23T19:18:52.261Z,24.09
2018-07-23T19:21:04.735Z,23.96
2018-07-23T19:23:17.157Z,23.83
2018-07-23T19:25:29.563Z,23.71
2018-07-23T19:27:41.949Z,23.55
2018-07-23T19:29:54.353Z,23.50
2018-07-23T19:32:06.875Z,23.52
2018-07-23T19:34:19.451Z,23.49
2018-07-23T19:36:31.903Z,23.39
2018-07-23T19:38:44.289Z,23.31
2018-07-23T19:40:56.732Z,23.23
2018-07-23T19:43:09.093Z,23.16
2018-07-23T19:45:21.476Z,23.05
2018-07-23T19:47:33.868Z,22.99
2018-07-23T19:49:46.149Z,22.99
2018-07-23T19:51:58.546Z,22.86
2018-07-23T19:54:11.046Z,22.86
2018-07-23T19:56:23.514Z,22.78
2018-07-23T19:58:35.935Z,22.67
2018-07-23T20:00:48.355Z,22.56
2018-07-23T20:03:00.758Z,22.48
2018-07-23T20:05:13.275Z,22.40
2018-07-23T20:07:25.612Z,22.37
2018-07-23T20:09:38.218Z,22.25
2018-07-23T20:11:50.626Z,22.10
2018-07-23T20:14:03.051Z,21.99
2018-07-23T20:16:15.495Z,21.92
2018-07-23T20:18:27.906Z,21.86
2018-07-23T20:20:40.396Z,21.85
2018-07-23T20:22:52.842Z,21.85
2018-07-23T20:25:05.277Z,21.86
2018-07-23T20:27:17.654Z,21.77
2018-07-23T20:29:29.989Z,21.78
2018-07-23T20:31:42.358Z,21.70
2018-07-23T20:33:54.836Z,21.75
2018-07-23T20:36:07.429Z,21.70
2018-07-23T20:38:20.003Z,21.59
2018-07-23T20:40:32.427Z,21.50
2018-07-23T20:42:44.757Z,21.38
2018-07-23T20:44:57.082Z,21.32
2018-07-23T20:47:09.446Z,21.27
2018-07-23T20:49:21.775Z,21.25
2018-07-23T20:51:34.203Z,21.23
2018-07-23T20:53:46.500Z,21.20
2018-07-23T20:55:58.914Z,21.20
2018-07-23T20:58:11.482Z,21.17
2018-07-23T21:00:24.055Z,21.09
2018-07-23T21:02:36.436Z,21.07
2018-07-23T21:04:48.931Z,21.08
2018-07-23T21:07:01.297Z,21.09
2018-07-23T21:09:13.676Z,21.10
2018-07-23T21:11:26.089Z,21.13
2018-07-23T21:13:38.493Z,21.17
2018-07-23T21:15:50.885Z,21.19
2018-07-23T21:18:03.361Z,21.21
2018-07-23T21:20:15.851Z,21.22
2018-07-23T21:22:28.446Z,21.20
2018-07-23T21:24:40.800Z,21.15
2018-07-23T21:26:53.171Z,21.08
2018-07-23T21:29:05.701Z,20.99
2018-07-23T21:31:18.029Z,20.89
2018-07-23T21:33:30.394Z,20.88
2018-07-23T21:35:42.769Z,20.90
2018-07-23T21:37:55.153Z,20.92
2018-07-23T21:40:08.598Z,20.93
2018-07-23T21:42:21.110Z,20.90
2018-07-23T21:44:33.645Z,20.89
2018-07-23T21:46:46.095Z,20.89
2018-07-23T21:48:58.470Z,20.90
2018-07-23T21:51:10.822Z,20.85
2018-07-23T21:53:23.225Z,20.79
2018-07-23T21:55:35.610Z,20.75
2018-07-23T21:57:48.018Z,20.73
2018-07-23T22:00:00.390Z,20.75
2018-07-23T22:02:12.802Z,20.74
2018-07-23T22:04:25.278Z,20.74
2018-07-23T22:06:37.666Z,20.70
2018-07-23T22:08:50.787Z,20.70
2018-07-23T22:11:03.239Z,20.69
2018-07-23T22:13:15.609Z,20.69
2018-07-23T22:15:28.044Z,20.65
2018-07-23T22:17:40.433Z,20.60
2018-07-23T22:19:52.808Z,20.50
2018-07-23T22:22:05.267Z,20.45
2018-07-23T22:24:17.603Z,20.40
2018-07-23T22:26:29.976Z,20.38
2018-07-23T22:28:42.392Z,20.37
2018-07-23T22:33:42.798Z,20.32
2018-07-23T22:35:55.046Z,20.30
2018-07-23T22:38:07.352Z,20.32
2018-07-23T22:40:19.610Z,20.27
2018-07-23T22:42:32.417Z,20.27
2018-07-23T22:44:48.494Z,20.25
2018-07-23T22:47:00.735Z,20.22
2018-07-23T22:49:13.040Z,20.18
2018-07-23T22:51:25.314Z,20.16
2018-07-23T22:53:37.574Z,20.18
2018-07-23T22:55:49.894Z,20.18
2018-07-23T22:58:02.186Z,20.18
2018-07-23T23:00:14.479Z,20.19
2018-07-23T23:02:26.739Z,20.20
2018-07-23T23:04:39.015Z,20.21
2018-07-23T23:06:51.275Z,20.21
2018-07-23T23:09:06.775Z,20.22
2018-07-23T23:11:18.995Z,20.17
2018-07-23T23:13:31.275Z,20.16
2018-07-23T23:15:43.529Z,20.15
2018-07-23T23:17:55.734Z,20.11
2018-07-23T23:20:08.422Z,20.04
2018-07-23T23:22:20.594Z,20.04
2018-07-23T23:24:32.818Z,20.00
2018-07-23T23:26:45.094Z,19.97
2018-07-23T23:28:57.337Z,19.94
2018-07-23T23:31:09.594Z,19.91
2018-07-23T23:33:21.835Z,19.85
2018-07-23T23:35:34.073Z,19.77
2018-07-23T23:37:46.353Z,19.68
2018-07-23T23:39:58.622Z,19.66
2018-07-23T23:42:10.886Z,19.62
2018-07-23T23:44:23.103Z,19.55
2018-07-23T23:46:35.439Z,19.44
2018-07-23T23:48:47.645Z,19.31
2018-07-23T23:50:59.890Z,19.18
2018-07-23T23:53:12.123Z,19.11
2018-07-23T23:55:24.360Z,19.09
2018-07-23T23:57:36.588Z,19.11
2018-07-23T23:59:48.851Z,19.10
